Terminal Aerodrome Forecast
Issued by NWS Wilmington, OH

Current Version | Previous Version | Graphics & Text | Print | Product List | Glossary On
Versions: 1 2 3 4 5 6 7 8 9 10 11 12 13 14 15 16 17 18 19 20 21 22 23 24 25 26 27 28 29 30 31 32 33 34
000
FTUS41 KILN 021409 AAA
TAFCVG
TAF AMD
KCVG 021409Z 0214/0318 28006KT P6SM OVC025
      TEMPO 0214/0216 OVC018
     FM021600 27012KT P6SM OVC035
      TEMPO 0216/0218 OVC025
     FM022300 29006KT P6SM BKN035
     FM031500 28005KT P6SM SCT040 BKN250=

USA.gov is the U.S. government's official web portal to all federal, state and local government web resources and services.